Terminal Aerodrome Forecast
Issued by NWS

Home | Current Version | Previous Version | Text Only | Print | Product List | Glossary Off
Versions: 1 2 3 4 5 6 7 8 9 10 11 12 13 14 15 16 17 18 19 20

000
FTUS43 KMPX 170900 AAA
TAFRNH
TAF AMD
KRNH 170901Z 1709/1806 08004KT 6SM BR FEW006 SCT012
      TEMPO 1709/1711 BKN012
     FM171100 09004KT 2SM BR BKN006 OVC012
     FM171500 12005KT P6SM SCT012 OVC020
     FM171800 12007KT P6SM SCT020 OVC040
     FM180000 11003KT P6SM VCSH SCT030 OVC060=

USA.gov is the U.S. government's official web portal to all federal, state and local government web resources and services.